Time;durP1;ratioP1;P1;durP2;ratioP2;P2;SDS_P1;SDS_P2;PMS_P1;PMS_P2;Temp;Humidity;BMP_temperature;BMP_pressure;BME280_temperature;BME280_humidity;BME280_pressure;Samples;Min_cycle;Max_cycle;Signal;HPM_P1;HPM_P2
2023/05/28 00:02:07;;;;;;;17.63;8.60;;;11.20;94.30;;;;;;5074411;28;20032;-67
2023/05/28 00:04:32;;;;;;;17.23;7.90;;;11.20;94.80;;;;;;5074309;28;20043;-67
2023/05/28 00:06:58;;;;;;;15.82;7.63;;;11.20;95.90;;;;;;5074303;28;20115;-67
2023/05/28 00:09:23;;;;;;;14.20;7.97;;;11.20;99.40;;;;;;5073870;28;20136;-67
2023/05/28 00:11:49;;;;;;;18.23;8.15;;;11.20;98.30;;;;;;5074252;28;20028;-67
2023/05/28 00:14:15;;;;;;;14.23;7.90;;;11.20;97.10;;;;;;5073855;28;20051;-67
2023/05/28 00:16:43;;;;;;;19.23;7.95;;;11.20;96.30;;;;;;5073912;28;20382;-67
2023/05/28 00:19:09;;;;;;;20.80;9.43;;;11.20;97.40;;;;;;5074144;28;20036;-67
2023/05/28 00:21:36;;;;;;;15.45;8.90;;;11.20;98.50;;;;;;5073998;28;20033;-67
2023/05/28 00:24:01;;;;;;;18.02;8.40;;;11.30;97.40;;;;;;5073975;28;20449;-68
2023/05/28 00:26:27;;;;;;;20.55;8.35;;;11.40;94.20;;;;;;5074077;28;20063;-67
2023/05/28 00:28:53;;;;;;;15.05;8.00;;;11.60;82.20;;;;;;5073581;28;20047;-67
2023/05/28 00:31:18;;;;;;;12.63;7.43;;;11.60;67.60;;;;;;5073718;28;20025;-67
2023/05/28 00:33:44;;;;;;;15.05;8.18;;;11.60;56.20;;;;;;5073836;28;20058;-67
2023/05/28 00:36:10;;;;;;;14.63;8.05;;;11.60;56.80;;;;;;5073805;28;20119;-67
2023/05/28 00:38:36;;;;;;;18.05;8.32;;;11.50;57.10;;;;;;5073797;28;20056;-67
2023/05/28 00:41:02;;;;;;;15.27;7.78;;;11.50;53.20;;;;;;5073383;28;20028;-67
2023/05/28 00:43:27;;;;;;;16.52;8.35;;;11.40;54.40;;;;;;5073710;28;20031;-67
2023/05/28 00:45:58;;;;;;;12.52;7.75;;;11.30;62.10;;;;;;5073618;28;20025;-67
2023/05/28 00:48:25;;;;;;;13.85;7.75;;;11.20;69.20;;;;;;5073604;28;20016;-67
2023/05/28 00:50:51;;;;;;;18.10;8.73;;;11.10;73.80;;;;;;5073312;28;20107;-67
2023/05/28 00:53:17;;;;;;;18.38;8.00;;;11.00;85.80;;;;;;5073630;28;20535;-67
2023/05/28 00:55:43;;;;;;;13.15;8.25;;;11.00;91.20;;;;;;5073596;28;20480;-67
2023/05/28 00:58:09;;;;;;;15.38;7.95;;;10.90;93.90;;;;;;5073110;28;20128;-67
2023/05/28 01:00:36;;;;;;;15.43;8.40;;;10.80;94.40;;;;;;5073210;28;20028;-67
2023/05/28 01:03:03;;;;;;;12.85;8.55;;;10.80;96.70;;;;;;5073327;28;20107;-67
2023/05/28 01:05:31;;;;;;;15.25;7.85;;;10.70;99.70;;;;;;5073466;28;20040;-67
2023/05/28 01:08:00;;;;;;;14.40;8.07;;;10.60;99.90;;;;;;5073427;28;20024;-67
2023/05/28 01:10:26;;;;;;;18.77;8.85;;;10.50;99.90;;;;;;5073066;28;20102;-67
2023/05/28 01:12:53;;;;;;;14.80;8.02;;;10.50;99.90;;;;;;5073417;28;20543;-67
2023/05/28 01:15:19;;;;;;;12.45;7.28;;;10.50;99.90;;;;;;5073427;28;20020;-67
2023/05/28 01:17:45;;;;;;;16.95;8.30;;;10.40;99.90;;;;;;5073291;28;20024;-67
2023/05/28 01:20:13;;;;;;;11.80;7.35;;;10.40;99.90;;;;;;5073141;28;20028;-67
2023/05/28 01:22:39;;;;;;;14.80;7.32;;;10.30;99.90;;;;;;5073112;28;20033;-67
2023/05/28 01:25:09;;;;;;;12.65;7.15;;;10.20;99.90;;;;;;5073261;28;20052;-67
2023/05/28 01:27:38;;;;;;;12.10;7.50;;;10.20;99.90;;;;;;5072837;28;20029;-67
2023/05/28 01:30:07;;;;;;;14.27;7.70;;;10.10;99.90;;;;;;5072847;28;20025;-67
2023/05/28 01:32:32;;;;;;;17.67;7.95;;;10.10;99.90;;;;;;5072784;28;20111;-67
2023/05/28 01:34:58;;;;;;;15.23;8.35;;;10.00;99.90;;;;;;5073032;28;20116;-67
2023/05/28 01:37:25;;;;;;;14.20;7.68;;;9.90;99.90;;;;;;5072789;28;20021;-67
2023/05/28 01:39:52;;;;;;;17.92;7.88;;;9.80;99.90;;;;;;5073112;28;20067;-67
2023/05/28 01:42:17;;;;;;;13.65;8.57;;;9.80;99.90;;;;;;5073228;28;20455;-67
2023/05/28 01:44:45;;;;;;;19.63;9.60;;;9.70;99.90;;;;;;5072847;28;20103;-67
2023/05/28 01:47:13;;;;;;;15.85;8.77;;;9.70;99.90;;;;;;5072863;28;20033;-67
2023/05/28 01:49:39;;;;;;;15.18;8.70;;;9.70;99.90;;;;;;5072794;28;20024;-67
2023/05/28 01:52:06;;;;;;;15.90;8.80;;;9.60;99.90;;;;;;5073011;28;20024;-67
2023/05/28 01:54:31;;;;;;;18.42;8.75;;;9.50;99.90;;;;;;5072838;28;20017;-67
2023/05/28 01:56:57;;;;;;;16.33;8.20;;;9.50;99.90;;;;;;5072600;28;20021;-67
2023/05/28 01:59:22;;;;;;;14.40;8.15;;;9.40;99.90;;;;;;5072704;28;20143;-67
2023/05/28 02:01:48;;;;;;;16.13;8.27;;;9.40;99.90;;;;;;5072698;28;20158;-67
2023/05/28 02:04:13;;;;;;;16.67;9.02;;;9.40;99.90;;;;;;5072459;28;20021;-67
2023/05/28 02:06:40;;;;;;;13.80;8.05;;;9.30;99.90;;;;;;5072828;28;20028;-67
2023/05/28 02:09:06;;;;;;;15.27;8.98;;;9.30;99.90;;;;;;5072427;28;20533;-67
2023/05/28 02:11:31;;;;;;;15.60;8.50;;;9.20;99.90;;;;;;5072501;28;20083;-67
2023/05/28 02:13:58;;;;;;;19.35;9.18;;;9.20;99.90;;;;;;5075191;28;20414;-67
2023/05/28 02:16:24;;;;;;;14.77;8.68;;;9.10;99.90;;;;;;5076296;28;20067;-67
2023/05/28 02:18:52;;;;;;;16.50;8.35;;;9.10;99.90;;;;;;5076457;28;20027;-67
2023/05/28 02:21:18;;;;;;;16.65;8.85;;;9.10;99.90;;;;;;5076366;28;20539;-67
2023/05/28 02:23:45;;;;;;;17.15;8.82;;;9.10;99.90;;;;;;5076395;28;20056;-67
2023/05/28 02:26:11;;;;;;;16.42;8.88;;;9.00;99.90;;;;;;5074970;28;20044;-67
2023/05/28 02:28:36;;;;;;;19.63;10.20;;;9.00;99.90;;;;;;5076276;28;20036;-67
2023/05/28 02:31:02;;;;;;;19.02;9.25;;;8.90;99.90;;;;;;5076050;28;20102;-67
2023/05/28 02:33:28;;;;;;;18.17;9.85;;;8.90;99.90;;;;;;5075846;28;20024;-67
2023/05/28 02:35:53;;;;;;;14.27;9.30;;;8.90;99.90;;;;;;5076133;28;20035;-67
2023/05/28 02:38:19;;;;;;;17.08;8.55;;;8.90;99.90;;;;;;5075822;28;20425;-67
2023/05/28 02:40:45;;;;;;;14.23;9.35;;;8.80;99.90;;;;;;5076335;28;20036;-67
2023/05/28 02:43:10;;;;;;;15.35;9.38;;;8.80;99.90;;;;;;5075978;28;20021;-67
2023/05/28 02:45:36;;;;;;;17.63;9.43;;;8.80;99.90;;;;;;5075899;28;20386;-67
2023/05/28 02:48:01;;;;;;;14.50;9.57;;;8.70;99.90;;;;;;5075734;28;20032;-67
2023/05/28 02:50:27;;;;;;;15.45;8.93;;;8.70;99.90;;;;;;5075373;28;20120;-67
2023/05/28 02:52:52;;;;;;;17.40;10.30;;;8.70;99.90;;;;;;5075849;28;20078;-67
2023/05/28 02:55:18;;;;;;;19.25;9.93;;;8.70;99.90;;;;;;5075662;28;20103;-67
2023/05/28 02:57:44;;;;;;;20.08;9.93;;;8.60;99.90;;;;;;5075755;28;20031;-67
2023/05/28 03:00:10;;;;;;;19.02;11.13;;;8.60;99.90;;;;;;5075645;28;20032;-67
2023/05/28 03:02:36;;;;;;;16.05;9.77;;;8.50;99.90;;;;;;5075467;28;20545;-67
2023/05/28 03:05:02;;;;;;;19.00;10.30;;;8.50;99.90;;;;;;5075673;28;20082;-67
2023/05/28 03:07:29;;;;;;;18.67;10.23;;;8.50;99.90;;;;;;5075077;28;20036;-67
2023/05/28 03:09:54;;;;;;;16.98;10.55;;;8.50;99.90;;;;;;5075235;28;20119;-67
2023/05/28 03:12:20;;;;;;;18.23;9.80;;;8.40;99.90;;;;;;5075545;28;20043;-67
2023/05/28 03:14:45;;;;;;;18.75;10.48;;;8.40;99.90;;;;;;5075361;28;20157;-67
2023/05/28 03:17:11;;;;;;;16.33;10.23;;;8.40;99.90;;;;;;5074849;28;20028;-67
2023/05/28 03:19:36;;;;;;;14.45;9.32;;;8.40;99.90;;;;;;5075316;28;20029;-68
2023/05/28 03:22:02;;;;;;;19.25;10.85;;;8.40;99.90;;;;;;5075296;28;20036;-67
2023/05/28 03:24:28;;;;;;;22.15;11.48;;;8.40;99.90;;;;;;5074837;28;20025;-67
2023/05/28 03:26:53;;;;;;;21.10;11.07;;;8.40;99.90;;;;;;5075139;28;20033;-67
2023/05/28 03:29:19;;;;;;;20.00;11.77;;;8.40;99.90;;;;;;5075071;28;20024;-67
2023/05/28 03:31:46;;;;;;;26.50;11.90;;;8.30;99.90;;;;;;5074786;28;20429;-67
2023/05/28 03:34:12;;;;;;;22.25;11.68;;;8.40;99.90;;;;;;5074849;28;20394;-67
2023/05/28 03:36:40;;;;;;;18.67;10.95;;;8.30;99.90;;;;;;5074587;28;20020;-67
2023/05/28 03:39:07;;;;;;;18.63;11.38;;;8.40;99.90;;;;;;5074981;28;20444;-67
2023/05/28 03:41:32;;;;;;;20.00;11.07;;;8.40;99.90;;;;;;5074954;28;20028;-67
2023/05/28 03:43:59;;;;;;;15.98;10.13;;;8.40;99.90;;;;;;5074813;28;20103;-67
2023/05/28 03:46:24;;;;;;;15.40;10.15;;;8.40;99.90;;;;;;5074822;28;20032;-67
2023/05/28 03:48:50;;;;;;;20.42;10.93;;;8.50;99.90;;;;;;5074333;28;20396;-67
2023/05/28 03:51:16;;;;;;;20.27;10.70;;;8.50;99.90;;;;;;5074401;28;20029;-67
2023/05/28 03:53:41;;;;;;;16.65;10.90;;;8.60;99.90;;;;;;5074438;28;20036;-67
2023/05/28 03:56:07;;;;;;;17.13;10.02;;;8.60;99.90;;;;;;5074599;28;20408;-67
2023/05/28 03:58:33;;;;;;;17.17;10.65;;;8.70;99.90;;;;;;5074339;28;20514;-67
2023/05/28 04:01:00;;;;;;;19.17;11.27;;;8.80;99.90;;;;;;5074464;28;20035;-67
2023/05/28 04:03:25;;;;;;;19.75;11.10;;;8.80;99.90;;;;;;5074386;28;20029;-67
2023/05/28 04:05:52;;;;;;;18.90;11.18;;;8.80;99.90;;;;;;5074332;28;20371;-67
2023/05/28 04:08:18;;;;;;;25.42;11.38;;;8.90;99.90;;;;;;5074421;28;20463;-67
2023/05/28 04:10:43;;;;;;;21.40;11.20;;;8.90;99.90;;;;;;5073870;28;20131;-67
2023/05/28 04:13:09;;;;;;;15.25;9.98;;;9.00;99.90;;;;;;5073875;28;20115;-67
2023/05/28 04:15:35;;;;;;;17.38;10.48;;;9.00;99.90;;;;;;5074077;28;20074;-67
2023/05/28 04:18:00;;;;;;;17.35;9.73;;;9.10;99.90;;;;;;5074046;28;20074;-67
2023/05/28 04:20:26;;;;;;;19.33;10.80;;;9.20;99.90;;;;;;5073972;28;20086;-67
2023/05/28 04:22:51;;;;;;;23.05;11.23;;;9.30;99.90;;;;;;5074114;28;20432;-67
2023/05/28 04:25:18;;;;;;;21.65;11.43;;;9.40;99.90;;;;;;5073915;28;20433;-67
2023/05/28 04:27:44;;;;;;;23.80;11.25;;;9.50;99.90;;;;;;5073994;28;20025;-67
2023/05/28 04:30:11;;;;;;;17.35;10.48;;;9.70;99.90;;;;;;5073706;28;20052;-67
2023/05/28 04:32:39;;;;;;;26.30;11.45;;;9.90;99.90;;;;;;5073392;28;20494;-67
2023/05/28 04:35:05;;;;;;;21.70;10.88;;;10.30;99.90;;;;;;5073581;28;20123;-67
2023/05/28 04:37:33;;;;;;;15.68;9.25;;;11.40;99.90;;;;;;5073620;28;20020;-68
2023/05/28 04:39:58;;;;;;;14.77;8.48;;;12.80;99.90;;;;;;5073921;28;20028;-67
2023/05/28 04:42:24;;;;;;;15.25;8.13;;;14.00;99.90;;;;;;5073684;28;20063;-67
2023/05/28 04:44:53;;;;;;;11.30;6.72;;;15.00;1.00;;;;;;5073660;28;20107;-67
2023/05/28 04:47:19;;;;;;;15.00;8.07;;;16.00;1.00;;;;;;5073213;28;20024;-68
2023/05/28 04:49:44;;;;;;;13.85;7.22;;;16.90;99.90;;;;;;5073637;28;20032;-68
2023/05/28 04:52:10;;;;;;;13.93;7.25;;;17.20;99.90;;;;;;5073401;28;20078;-68
2023/05/28 04:54:36;;;;;;;10.57;6.28;;;17.40;26.30;;;;;;5073446;28;20021;-68
2023/05/28 04:57:02;;;;;;;11.45;6.57;;;18.00;99.90;;;;;;5073520;28;20029;-68
2023/05/28 04:59:31;;;;;;;13.35;6.55;;;18.10;99.90;;;;;;5073659;28;20052;-69
2023/05/28 05:01:56;;;;;;;11.57;7.35;;;18.00;1.00;;;;;;5073422;28;20028;-68
2023/05/28 05:04:22;;;;;;;16.08;7.15;;;18.40;1.00;;;;;;5073695;28;20039;-68
2023/05/28 05:06:48;;;;;;;12.48;7.35;;;18.10;1.00;;;;;;5073504;28;20428;-68
2023/05/28 05:09:14;;;;;;;14.48;8.10;;;17.30;1.00;;;;;;5073240;28;20049;-68
2023/05/28 05:11:40;;;;;;;11.85;7.68;;;16.20;1.00;;;;;;5073097;28;20086;-68
2023/05/28 05:14:05;;;;;;;12.32;8.52;;;15.20;1.00;;;;;;5072950;28;20044;-68
2023/05/28 05:16:31;;;;;;;13.45;8.57;;;15.30;49.40;;;;;;5073078;28;20107;-68
2023/05/28 05:18:57;;;;;;;18.08;8.75;;;15.00;99.90;;;;;;5073376;28;20052;-68
2023/05/28 05:21:22;;;;;;;12.98;7.30;;;15.40;1.00;;;;;;5073397;28;20037;-68
2023/05/28 05:23:48;;;;;;;13.48;7.95;;;15.90;10.10;;;;;;5073326;28;20106;-68
2023/05/28 05:26:16;;;;;;;12.13;7.88;;;16.50;1.00;;;;;;5073004;28;20020;-68
2023/05/28 05:28:43;;;;;;;15.40;8.63;;;16.80;99.90;;;;;;5073105;28;20043;-68
2023/05/28 05:31:11;;;;;;;11.60;7.43;;;17.50;1.00;;;;;;5072982;28;20024;-68
2023/05/28 05:33:37;;;;;;;14.48;7.70;;;18.70;1.00;;;;;;5073053;28;20032;-68
2023/05/28 05:36:03;;;;;;;13.57;7.50;;;18.60;99.90;;;;;;5073155;28;20028;-68
2023/05/28 05:38:30;;;;;;;11.07;7.05;;;19.20;90.20;;;;;;5073101;28;20107;-68
2023/05/28 05:40:56;;;;;;;11.10;7.75;;;20.80;1.00;;;;;;5072791;28;20028;-68
2023/05/28 05:43:22;;;;;;;11.90;7.20;;;19.90;1.00;;;;;;5073111;28;20033;-68
2023/05/28 05:45:48;;;;;;;13.95;7.03;;;20.10;99.90;;;;;;5073280;28;20107;-68
2023/05/28 05:48:14;;;;;;;10.50;6.57;;;20.50;1.00;;;;;;5075816;28;20047;-69
2023/05/28 05:50:49;;;;;;;11.27;7.53;;;20.80;99.90;;;;;;5076485;28;20017;-68
2023/05/28 05:53:15;;;;;;;13.70;7.00;;;19.80;99.90;;;;;;5076825;28;20090;-68
2023/05/28 05:55:41;;;;;;;12.88;7.20;;;20.30;99.90;;;;;;5076948;28;20498;-69
2023/05/28 05:58:06;;;;;;;9.60;6.63;;;21.30;99.90;;;;;;5076757;28;20059;-67
2023/05/28 06:00:33;;;;;;;10.32;6.57;;;21.40;99.90;;;;;;5076435;28;20115;-67
2023/05/28 06:02:58;;;;;;;11.77;6.35;;;21.50;99.90;;;;;;5076652;28;20116;-67
2023/05/28 06:05:24;;;;;;;11.00;6.38;;;22.00;99.90;;;;;;5076677;28;20107;-67
2023/05/28 06:07:49;;;;;;;10.23;6.55;;;23.20;99.90;;;;;;5076853;28;20063;-68
2023/05/28 06:10:15;;;;;;;10.30;6.03;;;23.40;99.90;;;;;;5076355;28;20102;-68
2023/05/28 06:12:41;;;;;;;11.85;6.40;;;23.50;99.90;;;;;;5076371;28;20043;-67
2023/05/28 06:15:08;;;;;;;13.55;6.40;;;22.90;99.90;;;;;;5076293;28;20028;-67
2023/05/28 06:17:33;;;;;;;10.50;6.07;;;23.40;99.90;;;;;;5076533;28;20031;-68
2023/05/28 06:20:00;;;;;;;15.25;6.75;;;23.20;99.90;;;;;;5076246;28;20029;-68
2023/05/28 06:22:26;;;;;;;8.20;6.03;;;24.20;99.90;;;;;;5076304;28;20115;-68
2023/05/28 06:24:52;;;;;;;13.93;6.40;;;24.60;99.90;;;;;;5076457;28;20127;-67
2023/05/28 06:27:20;;;;;;;11.63;6.15;;;24.40;99.90;;;;;;5076199;28;20052;-67
2023/05/28 06:29:46;;;;;;;11.13;6.03;;;24.50;99.90;;;;;;5075899;28;20024;-67
2023/05/28 06:32:13;;;;;;;11.00;6.43;;;24.80;99.90;;;;;;5076146;28;20119;-67
2023/05/28 06:34:38;;;;;;;8.25;5.18;;;25.10;12.00;;;;;;5075847;28;20389;-67
2023/05/28 06:37:04;;;;;;;11.10;6.18;;;24.40;99.90;;;;;;5076310;28;20027;-67
2023/05/28 06:39:30;;;;;;;8.07;5.18;;;25.10;99.90;;;;;;5076283;28;20020;-67
2023/05/28 06:41:56;;;;;;;10.13;5.65;;;25.30;99.90;;;;;;5075956;28;20025;-67
2023/05/28 06:44:22;;;;;;;9.48;5.30;;;25.40;99.90;;;;;;5075972;28;20028;-67
2023/05/28 06:46:48;;;;;;;8.45;5.20;;;26.50;99.90;;;;;;5076108;28;20028;-67
2023/05/28 06:49:13;;;;;;;9.93;5.07;;;25.20;99.90;;;;;;5075910;28;20543;-67
2023/05/28 06:51:40;;;;;;;9.80;4.88;;;25.90;99.90;;;;;;5075743;28;20063;-67
2023/05/28 06:54:06;;;;;;;7.15;4.43;;;25.40;70.10;;;;;;5075956;28;20423;-67
2023/05/28 06:56:31;;;;;;;8.57;4.85;;;26.10;99.90;;;;;;5075934;28;20049;-67
2023/05/28 06:59:00;;;;;;;7.85;4.30;;;26.60;1.00;;;;;;5075230;28;20386;-67
2023/05/28 07:01:26;;;;;;;7.88;4.65;;;26.50;99.90;;;;;;5075584;28;20024;-67
2023/05/28 07:03:55;;;;;;;5.40;4.22;;;26.80;1.00;;;;;;5075499;28;20036;-67
2023/05/28 07:06:21;;;;;;;6.88;4.40;;;28.40;1.00;;;;;;5075712;28;20119;-67
2023/05/28 07:08:47;;;;;;;9.15;4.07;;;27.70;99.90;;;;;;5075100;28;20020;-68
2023/05/28 07:11:12;;;;;;;7.65;4.45;;;28.00;1.00;;;;;;5074967;28;20521;-68
2023/05/28 07:13:39;;;;;;;8.40;4.40;;;27.30;1.00;;;;;;5075185;28;20104;-68
2023/05/28 07:16:06;;;;;;;7.57;4.18;;;26.90;99.90;;;;;;5075042;28;20478;-68
2023/05/28 07:18:32;;;;;;;7.90;4.10;;;26.60;99.90;;;;;;5075317;28;20096;-68
2023/05/28 07:21:00;;;;;;;11.00;4.35;;;26.90;95.80;;;;;;5075318;28;20032;-67
2023/05/28 07:23:26;;;;;;;7.45;4.30;;;27.50;99.90;;;;;;5075360;28;20036;-68
2023/05/28 07:25:52;;;;;;;4.93;3.70;;;27.40;1.00;;;;;;5075334;28;20478;-68
2023/05/28 07:28:18;;;;;;;7.32;3.80;;;27.90;1.00;;;;;;5075315;28;20478;-68
2023/05/28 07:30:46;;;;;;;7.18;3.65;;;28.20;99.90;;;;;;5074900;28;20028;-68
2023/05/28 07:33:12;;;;;;;7.38;3.58;;;28.00;1.00;;;;;;5075282;28;20505;-68
2023/05/28 07:35:38;;;;;;;8.38;3.83;;;28.60;99.90;;;;;;5074866;28;20029;-68
2023/05/28 07:38:03;;;;;;;6.55;3.58;;;28.10;99.90;;;;;;5074704;28;20021;-68
2023/05/28 07:40:29;;;;;;;8.30;3.75;;;27.80;73.50;;;;;;5075028;28;20116;-68
2023/05/28 07:42:55;;;;;;;7.78;3.92;;;27.50;99.90;;;;;;5074817;28;20036;-68
2023/05/28 07:45:23;;;;;;;6.28;3.45;;;27.90;99.90;;;;;;5074926;28;20033;-68
2023/05/28 07:47:49;;;;;;;6.85;3.40;;;27.40;88.50;;;;;;5074628;28;20086;-67
2023/05/28 07:50:18;;;;;;;6.25;3.60;;;27.80;99.90;;;;;;5074521;28;20033;-68
2023/05/28 07:52:44;;;;;;;7.80;4.13;;;28.20;99.90;;;;;;5074184;28;20029;-68
2023/05/28 07:55:09;;;;;;;9.10;3.47;;;28.20;99.90;;;;;;5074592;28;20027;-68
2023/05/28 07:57:35;;;;;;;5.40;3.53;;;29.40;99.90;;;;;;5074532;28;20025;-68
2023/05/28 08:00:05;;;;;;;8.98;3.80;;;29.70;1.00;;;;;;5074569;28;20432;-68
2023/05/28 08:02:31;;;;;;;7.15;3.63;;;28.50;99.90;;;;;;5074461;28;20390;-68
2023/05/28 08:04:57;;;;;;;7.28;3.92;;;28.20;1.00;;;;;;5074457;28;20035;-68
2023/05/28 08:07:22;;;;;;;6.68;3.92;;;28.20;99.90;;;;;;5074519;28;20036;-68
2023/05/28 08:09:48;;;;;;;8.65;3.65;;;28.10;1.00;;;;;;5073719;28;20044;-68
2023/05/28 08:12:14;;;;;;;7.32;3.85;;;27.20;1.00;;;;;;5073296;28;20016;-68
2023/05/28 08:14:40;;;;;;;8.15;3.55;;;27.30;99.90;;;;;;5074141;28;20052;-68
2023/05/28 08:17:05;;;;;;;7.53;3.50;;;28.10;99.90;;;;;;5074055;28;20413;-68
2023/05/28 08:19:31;;;;;;;6.53;3.70;;;28.10;99.90;;;;;;5074201;28;20025;-68
2023/05/28 08:21:57;;;;;;;7.90;3.63;;;28.10;99.90;;;;;;5073841;28;20433;-68
2023/05/28 08:24:23;;;;;;;7.47;3.55;;;28.60;99.90;;;;;;5074093;28;20126;-68
2023/05/28 08:26:51;;;;;;;7.15;3.38;;;28.60;99.90;;;;;;5073742;28;20032;-68
2023/05/28 08:29:17;;;;;;;5.47;3.40;;;28.50;99.90;;;;;;5073925;28;20451;-68
2023/05/28 08:31:43;;;;;;;7.78;3.67;;;29.10;99.90;;;;;;5073685;28;20060;-68
2023/05/28 08:34:09;;;;;;;6.20;4.22;;;28.80;99.90;;;;;;5074158;28;20028;-68
2023/05/28 08:36:36;;;;;;;11.32;5.07;;;29.00;1.00;;;;;;5073530;28;20535;-68
2023/05/28 08:39:02;;;;;;;6.00;3.50;;;29.40;99.90;;;;;;5074098;28;20020;-68
2023/05/28 08:41:27;;;;;;;6.63;3.65;;;28.70;79.10;;;;;;5073864;28;20478;-68
2023/05/28 08:43:54;;;;;;;6.72;3.72;;;27.70;99.90;;;;;;5074011;28;20036;-68
2023/05/28 08:46:22;;;;;;;6.25;3.30;;;28.40;1.00;;;;;;5073880;28;20037;-68
2023/05/28 08:48:49;;;;;;;8.68;3.75;;;28.40;99.90;;;;;;5073608;28;20025;-68
2023/05/28 08:51:16;;;;;;;6.63;3.53;;;28.80;1.00;;;;;;5073377;28;20021;-68
2023/05/28 08:53:45;;;;;;;7.05;3.80;;;28.80;99.90;;;;;;5073746;28;20367;-68
2023/05/28 08:56:12;;;;;;;6.78;3.53;;;28.20;64.40;;;;;;5073842;28;20052;-68
2023/05/28 08:58:39;;;;;;;6.32;3.35;;;28.80;87.10;;;;;;5073422;28;20024;-68
2023/05/28 09:01:08;;;;;;;7.95;3.97;;;28.80;99.90;;;;;;5073055;28;20071;-68
2023/05/28 09:03:34;;;;;;;6.55;3.40;;;29.20;1.00;;;;;;5073484;28;20030;-68
2023/05/28 09:06:00;;;;;;;6.35;3.10;;;29.80;1.00;;;;;;5073423;28;20021;-68
2023/05/28 09:08:29;;;;;;;6.22;3.22;;;29.10;22.70;;;;;;5073604;28;20509;-68
2023/05/28 09:10:56;;;;;;;7.55;3.10;;;29.30;1.00;;;;;;5073290;28;20078;-68
2023/05/28 09:13:22;;;;;;;6.10;3.20;;;29.60;85.60;;;;;;5073442;28;20020;-68
2023/05/28 09:15:51;;;;;;;4.78;3.20;;;29.50;99.90;;;;;;5073563;28;20025;-68
2023/05/28 09:18:20;;;;;;;10.13;3.67;;;29.80;99.90;;;;;;5073239;28;20572;-68
2023/05/28 09:20:49;;;;;;;6.22;3.30;;;29.10;99.90;;;;;;5073436;28;20062;-68
2023/05/28 09:23:17;;;;;;;6.13;3.38;;;28.20;99.90;;;;;;5072822;28;20032;-68
2023/05/28 09:25:44;;;;;;;4.63;3.03;;;28.00;99.90;;;;;;5073360;28;20079;-70
2023/05/28 09:28:12;;;;;;;6.13;3.47;;;28.30;99.90;;;;;;5073143;28;20032;-68
2023/05/28 09:30:37;;;;;;;5.10;3.20;;;29.10;99.90;;;;;;5073184;28;20441;-68
2023/05/28 09:33:05;;;;;;;5.47;2.75;;;28.90;99.90;;;;;;5072832;28;20032;-69
2023/05/28 09:35:31;;;;;;;6.60;3.63;;;28.10;99.90;;;;;;5073350;28;20032;-68
2023/05/28 09:38:12;;;;;;;8.60;3.35;;;29.20;99.90;;;;;;5073314;28;20539;-68
2023/05/28 09:40:39;;;;;;;5.53;3.38;;;28.90;99.90;;;;;;5073036;28;20025;-68
2023/05/28 09:43:06;;;;;;;7.18;3.58;;;29.30;1.00;;;;;;5072714;28;20024;-68
2023/05/28 09:45:33;;;;;;;6.05;3.42;;;28.90;99.90;;;;;;5072922;28;20505;-68
2023/05/28 09:47:59;;;;;;;6.72;3.97;;;29.30;99.90;;;;;;5073220;28;20118;-68
2023/05/28 09:50:24;;;;;;;7.45;3.30;;;29.00;50.90;;;;;;5072962;28;20035;-68
2023/05/28 09:52:56;;;;;;;8.02;3.67;;;29.20;39.20;;;;;;5073151;28;20116;-68
2023/05/28 09:55:25;;;;;;;7.80;3.13;;;29.00;1.00;;;;;;5072818;28;20024;-68
2023/05/28 09:58:05;;;;;;;5.90;3.28;;;28.30;99.90;;;;;;5072846;28;20025;-68
2023/05/28 10:00:42;;;;;;;7.53;3.45;;;28.90;99.90;;;;;;5072759;28;20025;-68
2023/05/28 10:03:18;;;;;;;6.13;3.33;;;28.80;99.90;;;;;;5072832;28;20409;-68
2023/05/28 10:05:48;;;;;;;6.93;3.40;;;28.70;99.90;;;;;;5072562;28;20032;-68
2023/05/28 10:08:16;;;;;;;5.90;3.60;;;28.60;99.90;;;;;;5072974;28;20540;-68
2023/05/28 10:10:46;;;;;;;5.05;3.22;;;28.50;99.90;;;;;;5072463;28;20119;-68
2023/05/28 10:13:12;;;;;;;7.80;3.28;;;28.40;99.90;;;;;;5072648;28;20035;-68
2023/05/28 10:15:38;;;;;;;6.88;3.42;;;28.50;99.90;;;;;;5072468;28;20021;-68
2023/05/28 10:18:07;;;;;;;4.55;2.88;;;28.80;99.90;;;;;;5072792;28;20021;-68
2023/05/28 10:20:32;;;;;;;7.32;3.65;;;28.10;99.90;;;;;;5072645;28;20037;-68
2023/05/28 10:22:59;;;;;;;7.25;3.50;;;28.90;99.90;;;;;;5072881;28;20078;-68
2023/05/28 10:25:25;;;;;;;5.55;3.15;;;28.60;99.90;;;;;;5072867;28;20490;-68
2023/05/28 10:27:59;;;;;;;6.68;3.00;;;28.70;99.90;;;;;;5072262;28;20032;-68
2023/05/28 10:30:32;;;;;;;8.68;3.63;;;29.10;99.90;;;;;;5072644;28;20123;-68
2023/05/28 10:32:58;;;;;;;8.50;3.75;;;28.90;99.90;;;;;;5072223;28;20066;-68
2023/05/28 10:35:24;;;;;;;6.93;3.42;;;28.90;1.00;;;;;;5075836;28;20033;-68
2023/05/28 10:37:50;;;;;;;6.53;3.05;;;28.60;99.90;;;;;;5075809;28;20086;-68
2023/05/28 10:40:23;;;;;;;6.45;3.33;;;27.80;99.90;;;;;;5075860;28;20025;-68
2023/05/28 10:42:49;;;;;;;6.25;3.50;;;27.70;99.90;;;;;;5075952;28;20072;-68
2023/05/28 10:45:15;;;;;;;5.45;3.25;;;27.50;99.90;;;;;;5075780;28;20075;-68
2023/05/28 10:47:50;;;;;;;6.82;3.47;;;27.60;1.00;;;;;;5075709;28;20534;-68
2023/05/28 10:50:16;;;;;;;6.75;3.47;;;26.60;99.90;;;;;;5075626;28;20035;-68
2023/05/28 10:52:42;;;;;;;5.57;3.30;;;26.50;99.90;;;;;;5075658;28;20115;-68
2023/05/28 10:55:12;;;;;;;7.22;3.65;;;26.60;99.90;;;;;;5075765;28;20017;-68
2023/05/28 10:57:43;;;;;;;6.50;3.33;;;26.50;1.00;;;;;;5075804;28;20390;-68
2023/05/28 11:00:17;;;;;;;8.55;3.78;;;26.70;99.90;;;;;;5075944;28;20039;-68
2023/05/28 11:02:44;;;;;;;5.43;3.35;;;26.70;99.90;;;;;;5075775;28;20031;-68
2023/05/28 11:05:10;;;;;;;6.28;3.72;;;26.40;99.90;;;;;;5075126;28;20115;-68
2023/05/28 11:07:41;;;;;;;8.63;3.35;;;26.00;99.90;;;;;;5075446;28;20027;-68
2023/05/28 11:10:08;;;;;;;9.20;3.25;;;26.00;99.90;;;;;;5075345;28;20056;-68
2023/05/28 11:12:36;;;;;;;7.45;3.90;;;26.50;99.90;;;;;;5075050;28;20375;-68
2023/05/28 11:15:03;;;;;;;5.78;3.25;;;26.20;99.90;;;;;;5075363;28;20051;-68
2023/05/28 11:17:28;;;;;;;6.85;3.63;;;26.40;99.90;;;;;;5075655;28;20032;-68
2023/05/28 11:19:54;;;;;;;7.28;3.60;;;26.30;99.90;;;;;;5074938;28;20397;-68
2023/05/28 11:22:20;;;;;;;5.70;3.08;;;26.00;99.90;;;;;;5075270;28;20025;-68
2023/05/28 11:25:08;;;;;;;6.00;3.40;;;26.00;99.90;;;;;;5075282;28;20470;-68
2023/05/28 11:27:35;;;;;;;7.07;3.50;;;26.20;99.90;;;;;;5075055;28;20027;-68
2023/05/28 11:30:06;;;;;;;8.43;3.28;;;26.30;99.90;;;;;;5075152;28;20470;-68
2023/05/28 11:32:32;;;;;;;5.18;3.22;;;26.60;99.90;;;;;;5075036;28;20390;-68
2023/05/28 11:34:58;;;;;;;4.97;2.90;;;27.10;99.90;;;;;;5075030;28;20028;-68
2023/05/28 11:37:27;;;;;;;7.78;3.65;;;26.20;99.90;;;;;;5075060;28;20533;-68
2023/05/28 11:39:54;;;;;;;7.65;3.33;;;26.20;99.90;;;;;;5075080;28;20381;-68
2023/05/28 11:42:20;;;;;;;5.55;3.08;;;26.20;99.90;;;;;;5074844;28;20016;-68
2023/05/28 11:44:50;;;;;;;7.53;3.83;;;26.00;99.90;;;;;;5074702;28;20458;-68
2023/05/28 11:47:17;;;;;;;5.28;3.42;;;25.60;99.90;;;;;;5074858;28;20024;-68
2023/05/28 11:49:44;;;;;;;8.60;3.30;;;26.10;99.90;;;;;;5074510;28;20492;-68
2023/05/28 11:52:13;;;;;;;7.75;3.53;;;25.70;99.90;;;;;;5074867;28;20025;-68
2023/05/28 11:54:41;;;;;;;11.73;3.50;;;26.30;1.00;;;;;;5074300;28;20030;-68
2023/05/28 11:57:08;;;;;;;6.28;3.60;;;26.20;99.90;;;;;;5074459;28;20017;-68
2023/05/28 11:59:34;;;;;;;7.00;3.28;;;26.40;1.00;;;;;;5074516;28;20489;-68
2023/05/28 12:02:18;;;;;;;7.97;3.10;;;26.60;1.00;;;;;;5074778;28;20434;-68
2023/05/28 12:05:01;;;;;;;6.82;3.40;;;26.10;1.00;;;;;;5074531;28;20111;-68
2023/05/28 12:07:29;;;;;;;8.25;3.45;;;25.30;1.00;;;;;;5074129;28;20043;-67
2023/05/28 12:10:07;;;;;;;5.82;2.80;;;25.50;1.00;;;;;;5074179;28;20045;-68
2023/05/28 12:12:34;;;;;;;7.60;3.38;;;25.80;1.00;;;;;;5074424;28;20440;-68
2023/05/28 12:15:02;;;;;;;7.43;3.58;;;26.00;1.00;;;;;;5073935;28;20043;-68
2023/05/28 12:17:38;;;;;;;9.45;3.40;;;25.60;99.90;;;;;;5074175;28;20062;-68
2023/05/28 12:20:06;;;;;;;6.65;3.53;;;25.10;1.00;;;;;;5074207;28;20397;-68
2023/05/28 12:22:32;;;;;;;7.90;3.53;;;24.80;99.90;;;;;;5074135;28;20473;-68
2023/05/28 12:24:58;;;;;;;6.75;3.20;;;24.70;99.90;;;;;;5074023;28;20591;-68
2023/05/28 12:27:24;;;;;;;7.35;3.45;;;24.90;99.90;;;;;;5074102;28;20029;-68
2023/05/28 12:29:50;;;;;;;10.57;3.50;;;24.70;99.90;;;;;;5073971;28;20029;-68
2023/05/28 12:32:16;;;;;;;6.47;3.60;;;25.30;99.90;;;;;;5074017;28;20165;-68
2023/05/28 12:34:41;;;;;;;7.38;3.80;;;25.50;99.90;;;;;;5074009;28;20123;-68
2023/05/28 12:37:08;;;;;;;6.88;3.30;;;25.80;1.00;;;;;;5074019;28;20025;-68
2023/05/28 12:39:35;;;;;;;6.30;3.35;;;25.70;99.90;;;;;;5073931;28;20028;-68
2023/05/28 12:42:01;;;;;;;6.18;3.55;;;25.70;1.00;;;;;;5073494;28;20385;-68